Time;durP1;ratioP1;P1;durP2;ratioP2;P2;SDS_P1;SDS_P2;PMS_P1;PMS_P2;Temp;Humidity;BMP_temperature;BMP_pressure;BME280_temperature;BME280_humidity;BME280_pressure;Samples;Min_cycle;Max_cycle;Signal;HPM_P1;HPM_P2
2024/04/20 00:00:11;;;;;;;5.18;3.13;;;5.80;99.90;;;;;;5390318;26;20004;-92
2024/04/20 00:02:37;;;;;;;6.82;3.05;;;5.80;99.90;;;;;;5413312;26;20072;-90
2024/04/20 00:05:03;;;;;;;5.18;2.13;;;5.80;99.90;;;;;;5423198;26;20007;-89
2024/04/20 00:07:29;;;;;;;7.95;2.55;;;5.70;99.90;;;;;;5421956;26;20011;-90
2024/04/20 00:09:58;;;;;;;8.52;3.65;;;5.70;99.90;;;;;;5393835;26;20007;-89
2024/04/20 00:12:24;;;;;;;4.95;2.30;;;5.70;99.90;;;;;;5385211;26;20175;-90
2024/04/20 00:14:51;;;;;;;6.55;1.95;;;5.80;99.90;;;;;;5400050;26;19996;-90
2024/04/20 00:17:17;;;;;;;5.18;3.28;;;5.80;99.90;;;;;;5403363;26;20016;-89
2024/04/20 00:19:42;;;;;;;4.03;2.40;;;5.80;99.90;;;;;;5418272;26;20018;-89
2024/04/20 00:22:09;;;;;;;7.15;2.17;;;5.80;99.90;;;;;;5390020;26;20561;-89
2024/04/20 00:24:36;;;;;;;5.75;2.50;;;5.80;99.90;;;;;;5395396;26;19999;-89
2024/04/20 00:27:01;;;;;;;4.32;2.97;;;5.80;99.90;;;;;;5423330;26;19999;-89
2024/04/20 00:29:27;;;;;;;7.50;3.10;;;5.80;99.90;;;;;;5399900;26;20000;-90
2024/04/20 00:31:53;;;;;;;6.20;2.35;;;5.80;99.90;;;;;;5387440;26;19997;-90
2024/04/20 00:34:19;;;;;;;8.10;3.33;;;5.70;99.90;;;;;;5387346;26;20000;-89
2024/04/20 00:36:45;;;;;;;6.53;2.92;;;5.70;99.90;;;;;;5388837;26;20004;-88
2024/04/20 00:39:11;;;;;;;9.95;3.40;;;5.70;99.90;;;;;;5421368;26;20014;-92
2024/04/20 00:41:36;;;;;;;6.30;4.75;;;5.60;99.90;;;;;;5387602;26;20443;-90
2024/04/20 00:44:02;;;;;;;4.55;2.35;;;5.60;99.90;;;;;;5386909;26;20008;-89
2024/04/20 00:46:29;;;;;;;6.57;3.22;;;5.60;99.90;;;;;;5410992;26;19995;-89
2024/04/20 00:48:57;;;;;;;7.03;3.55;;;5.60;99.90;;;;;;5398187;26;20340;-89
2024/04/20 00:51:23;;;;;;;10.57;3.35;;;5.60;99.90;;;;;;5388344;26;20040;-90
2024/04/20 00:53:51;;;;;;;9.77;3.08;;;5.60;99.90;;;;;;5388282;26;20347;-90
2024/04/20 00:56:19;;;;;;;7.35;2.78;;;5.60;99.90;;;;;;5420121;26;20045;-89
2024/04/20 00:58:45;;;;;;;9.40;2.53;;;5.60;99.90;;;;;;5424909;26;20059;-89
2024/04/20 01:01:12;;;;;;;7.72;2.42;;;5.60;99.90;;;;;;5405912;26;20070;-90
2024/04/20 01:03:37;;;;;;;6.47;2.80;;;5.60;99.90;;;;;;5416547;26;20000;-90
2024/04/20 01:06:03;;;;;;;6.93;3.35;;;5.60;99.90;;;;;;5404630;26;20006;-89
2024/04/20 01:08:30;;;;;;;3.60;2.03;;;5.60;99.90;;;;;;5425508;26;19999;-89
2024/04/20 01:10:56;;;;;;;4.40;2.85;;;5.60;99.90;;;;;;5424460;26;20081;-89
2024/04/20 01:13:28;;;;;;;3.67;2.67;;;5.50;99.90;;;;;;5423195;26;20032;-91
2024/04/20 01:15:54;;;;;;;5.32;2.67;;;5.60;99.90;;;;;;5424427;26;20341;-90
2024/04/20 01:18:20;;;;;;;5.68;2.60;;;5.60;99.90;;;;;;5417713;26;20008;-90
2024/04/20 01:20:47;;;;;;;5.80;2.10;;;5.60;99.90;;;;;;5394734;26;19996;-90
2024/04/20 01:23:13;;;;;;;6.95;1.92;;;5.60;99.90;;;;;;5406824;26;19999;-90
2024/04/20 01:25:49;;;;;;;8.35;3.25;;;5.50;99.90;;;;;;5423498;26;19996;-90
2024/04/20 01:28:15;;;;;;;5.82;2.22;;;5.50;99.90;;;;;;5409178;26;19995;-89
2024/04/20 01:30:41;;;;;;;7.68;3.13;;;5.50;99.90;;;;;;5425160;26;20006;-89
2024/04/20 01:33:07;;;;;;;9.00;2.88;;;5.50;99.90;;;;;;5425278;26;19999;-90
2024/04/20 01:35:33;;;;;;;4.85;2.05;;;5.40;99.90;;;;;;5425002;26;19996;-89
2024/04/20 01:37:58;;;;;;;5.95;1.83;;;5.40;99.90;;;;;;5392997;26;20002;-89
2024/04/20 01:40:25;;;;;;;7.82;3.20;;;5.30;99.90;;;;;;5417747;26;20000;-90
2024/04/20 01:42:50;;;;;;;9.07;2.60;;;5.40;99.90;;;;;;5416459;26;20834;-88
2024/04/20 01:45:16;;;;;;;9.38;2.70;;;5.30;99.90;;;;;;5420211;26;20004;-89
2024/04/20 01:47:42;;;;;;;5.68;2.80;;;5.30;99.90;;;;;;5388944;26;20011;-89
2024/04/20 01:50:09;;;;;;;5.80;2.90;;;5.30;99.90;;;;;;5389835;26;20489;-89
2024/04/20 01:52:35;;;;;;;7.30;2.30;;;5.30;99.90;;;;;;5414498;26;20000;-89
2024/04/20 01:55:00;;;;;;;10.38;2.72;;;5.30;99.90;;;;;;5404820;26;20011;-89
2024/04/20 01:57:26;;;;;;;9.27;2.55;;;5.30;99.90;;;;;;5416818;26;19997;-89
2024/04/20 01:59:52;;;;;;;8.75;2.22;;;5.30;99.90;;;;;;5417092;26;19995;-90
2024/04/20 02:02:21;;;;;;;6.55;2.70;;;5.30;99.90;;;;;;5422893;26;20011;-89
2024/04/20 02:04:47;;;;;;;8.18;2.90;;;5.30;99.90;;;;;;5423147;26;20312;-88
2024/04/20 02:07:12;;;;;;;8.30;2.67;;;5.30;99.90;;;;;;5389372;26;19992;-89
2024/04/20 02:09:38;;;;;;;7.25;2.50;;;5.20;99.90;;;;;;5387947;26;19997;-88
2024/04/20 02:12:04;;;;;;;5.47;2.35;;;5.30;99.90;;;;;;5415583;26;20006;-89
2024/04/20 02:14:30;;;;;;;6.65;3.03;;;5.30;99.90;;;;;;5386135;26;20015;-89
2024/04/20 02:16:55;;;;;;;7.47;2.75;;;5.30;99.90;;;;;;5388177;26;20474;-90
2024/04/20 02:19:21;;;;;;;9.82;2.95;;;5.20;99.90;;;;;;5385386;26;20015;-87
2024/04/20 02:21:47;;;;;;;12.05;2.75;;;5.20;99.90;;;;;;5420869;26;20007;-89
2024/04/20 02:24:13;;;;;;;8.15;2.72;;;5.30;99.90;;;;;;5356977;26;20073;-89
2024/04/20 02:26:38;;;;;;;4.70;2.45;;;5.30;99.90;;;;;;5355912;26;19992;-89
2024/04/20 02:29:04;;;;;;;9.07;2.90;;;5.30;99.90;;;;;;5387136;26;20008;-88
2024/04/20 02:31:30;;;;;;;9.98;2.67;;;5.20;99.90;;;;;;5407653;26;19996;-89
2024/04/20 02:33:56;;;;;;;6.60;2.63;;;5.20;99.90;;;;;;5387352;26;19992;-91
2024/04/20 02:36:27;;;;;;;9.90;3.20;;;5.20;99.90;;;;;;5402273;26;20008;-90
2024/04/20 02:38:53;;;;;;;10.82;3.20;;;5.20;99.90;;;;;;5386577;26;20012;-89
2024/04/20 02:41:19;;;;;;;6.68;2.33;;;5.20;99.90;;;;;;5413223;26;19999;-89
2024/04/20 02:43:44;;;;;;;6.13;2.58;;;5.20;99.90;;;;;;5416470;26;20055;-89
2024/04/20 02:46:11;;;;;;;7.53;3.00;;;5.20;99.90;;;;;;5389604;26;20019;-88
2024/04/20 02:48:37;;;;;;;5.68;2.28;;;5.10;99.90;;;;;;5385594;26;19996;-90
2024/04/20 02:51:04;;;;;;;9.52;3.03;;;5.20;99.90;;;;;;5420313;26;20006;-89
2024/04/20 02:53:30;;;;;;;11.13;2.88;;;5.10;99.90;;;;;;5391462;26;19992;-89
2024/04/20 02:55:55;;;;;;;6.18;2.00;;;5.10;99.90;;;;;;5392928;26;20011;-89
2024/04/20 02:58:21;;;;;;;12.80;3.25;;;5.00;99.90;;;;;;5387141;26;20000;-90
2024/04/20 03:00:58;;;;;;;12.00;2.67;;;5.00;99.90;;;;;;5415502;26;19996;-88
2024/04/20 03:03:30;;;;;;;9.13;3.50;;;5.00;99.90;;;;;;5388090;26;20046;-90
2024/04/20 03:05:56;;;;;;;6.28;2.47;;;5.00;99.90;;;;;;5406112;26;20012;-90
2024/04/20 03:08:22;;;;;;;11.65;2.92;;;5.00;99.90;;;;;;5423698;26;20098;-88
2024/04/20 03:10:48;;;;;;;9.13;2.92;;;4.90;99.90;;;;;;5396029;26;20000;-88
2024/04/20 03:13:14;;;;;;;6.03;3.22;;;4.90;99.90;;;;;;5385764;26;20004;-90
2024/04/20 03:15:41;;;;;;;9.40;2.80;;;4.90;99.90;;;;;;5388088;26;20603;-88
2024/04/20 03:18:07;;;;;;;11.13;2.58;;;4.90;99.90;;;;;;5387306;26;20012;-88
2024/04/20 03:20:34;;;;;;;6.97;2.20;;;4.80;99.90;;;;;;5412711;26;20058;-89
2024/04/20 03:23:00;;;;;;;10.75;3.20;;;4.90;99.90;;;;;;5416637;26;19996;-89
2024/04/20 03:25:25;;;;;;;4.82;3.22;;;4.90;99.90;;;;;;5416272;26;20006;-89
2024/04/20 03:27:51;;;;;;;8.07;3.00;;;4.80;99.90;;;;;;5401026;26;20014;-89
2024/04/20 03:30:17;;;;;;;7.15;2.15;;;4.80;99.90;;;;;;5419860;26;20007;-88
2024/04/20 03:32:43;;;;;;;8.23;2.60;;;4.80;99.90;;;;;;5393913;26;20466;-89
2024/04/20 03:35:08;;;;;;;6.50;2.70;;;4.80;99.90;;;;;;5386250;26;19996;-89
2024/04/20 03:37:34;;;;;;;13.25;4.13;;;4.70;99.90;;;;;;5387116;26;19997;-89
2024/04/20 03:40:00;;;;;;;8.77;3.58;;;4.80;99.90;;;;;;5396385;26;20004;-89
2024/04/20 03:42:27;;;;;;;10.88;3.55;;;4.80;99.90;;;;;;5405378;26;20833;-89
2024/04/20 03:44:53;;;;;;;11.00;4.53;;;4.80;99.90;;;;;;5403462;26;19996;-89
2024/04/20 03:47:19;;;;;;;13.10;3.55;;;4.70;99.90;;;;;;5438684;26;19991;-90
2024/04/20 03:49:46;;;;;;;7.68;2.90;;;4.70;99.90;;;;;;5419601;26;19996;-89
2024/04/20 03:52:11;;;;;;;12.32;3.15;;;4.70;99.90;;;;;;5390518;26;19992;-89
2024/04/20 03:54:37;;;;;;;6.75;4.07;;;4.70;99.90;;;;;;5401083;26;19999;-88
2024/04/20 03:57:03;;;;;;;9.98;3.22;;;4.70;99.90;;;;;;5407986;26;20008;-89
2024/04/20 03:59:30;;;;;;;4.72;2.83;;;4.70;99.90;;;;;;5417829;26;20000;-90
2024/04/20 04:01:55;;;;;;;11.35;3.22;;;4.80;99.90;;;;;;5407161;26;20456;-89
2024/04/20 04:04:21;;;;;;;9.05;3.42;;;4.80;99.90;;;;;;5425744;26;19996;-90
2024/04/20 04:06:47;;;;;;;10.63;2.70;;;4.80;99.90;;;;;;5425201;26;20068;-89
2024/04/20 04:09:13;;;;;;;11.85;2.78;;;4.80;99.90;;;;;;5425482;26;20004;-89
2024/04/20 04:11:39;;;;;;;11.07;3.38;;;4.80;99.90;;;;;;5414752;26;20010;-88
2024/04/20 04:14:04;;;;;;;5.93;3.25;;;4.80;99.90;;;;;;5426296;26;20068;-89
2024/04/20 04:16:30;;;;;;;7.13;2.72;;;4.80;99.90;;;;;;5394424;26;19999;-89
2024/04/20 04:18:56;;;;;;;5.93;2.63;;;4.80;99.90;;;;;;5425259;26;20065;-89
2024/04/20 04:21:21;;;;;;;10.52;3.05;;;4.80;99.90;;;;;;5389178;26;20008;-88
2024/04/20 04:23:47;;;;;;;5.38;3.05;;;4.80;99.90;;;;;;5389984;26;20430;-89
2024/04/20 04:26:13;;;;;;;10.20;3.22;;;4.80;99.90;;;;;;5393285;26;20493;-89
2024/04/20 04:28:39;;;;;;;14.05;2.95;;;4.80;99.90;;;;;;5401392;26;20085;-88
2024/04/20 04:31:04;;;;;;;10.82;3.00;;;4.80;99.90;;;;;;5405830;26;19996;-89
2024/04/20 04:33:30;;;;;;;8.10;2.78;;;4.80;99.90;;;;;;5388373;26;20000;-91
2024/04/20 04:35:57;;;;;;;11.82;3.25;;;4.80;99.90;;;;;;5390955;26;20012;-89
2024/04/20 04:38:23;;;;;;;6.90;3.38;;;4.80;99.90;;;;;;5395312;26;20350;-90
2024/04/20 04:40:49;;;;;;;7.63;3.80;;;4.80;99.90;;;;;;5405381;26;20036;-88
2024/04/20 04:43:14;;;;;;;10.90;3.47;;;4.80;99.90;;;;;;5422212;26;20084;-90
2024/04/20 04:45:40;;;;;;;7.93;2.67;;;4.90;99.90;;;;;;5400991;26;20586;-88
2024/04/20 04:48:06;;;;;;;5.07;2.58;;;4.90;99.90;;;;;;5394348;26;20080;-89
2024/04/20 04:50:33;;;;;;;9.57;2.97;;;4.90;99.90;;;;;;5424013;26;20018;-88
2024/04/20 04:52:59;;;;;;;7.53;2.65;;;5.00;99.90;;;;;;5411854;26;20354;-89
2024/04/20 04:55:26;;;;;;;7.53;3.00;;;5.10;99.90;;;;;;5426046;26;20000;-89
2024/04/20 04:57:52;;;;;;;10.65;3.53;;;5.10;99.90;;;;;;5424751;26;19996;-89
2024/04/20 05:00:17;;;;;;;7.28;3.40;;;5.10;99.90;;;;;;5410688;26;20003;-89
2024/04/20 05:02:43;;;;;;;6.55;2.15;;;5.10;99.90;;;;;;5424919;26;20011;-90
2024/04/20 05:05:08;;;;;;;13.02;3.53;;;5.20;99.90;;;;;;5393713;26;20062;-89
2024/04/20 05:07:34;;;;;;;5.03;2.42;;;5.20;99.90;;;;;;5415057;26;20156;-89
2024/04/20 05:10:01;;;;;;;10.27;2.70;;;5.20;99.90;;;;;;5404844;26;20007;-88
2024/04/20 05:12:26;;;;;;;7.88;2.90;;;5.20;99.90;;;;;;5390244;26;20006;-89
2024/04/20 05:14:52;;;;;;;5.20;2.30;;;5.30;99.90;;;;;;5388628;26;20000;-89
2024/04/20 05:17:18;;;;;;;5.30;2.40;;;5.30;99.90;;;;;;5389068;26;20001;-89
2024/04/20 05:19:44;;;;;;;9.77;3.40;;;5.40;99.90;;;;;;5400924;26;19999;-90
2024/04/20 05:22:11;;;;;;;8.98;2.63;;;5.40;99.90;;;;;;5423631;26;20015;-89
2024/04/20 05:24:36;;;;;;;10.77;2.55;;;5.40;99.90;;;;;;5393257;26;20061;-89
2024/04/20 05:27:02;;;;;;;7.40;3.30;;;5.40;99.90;;;;;;5394783;26;20050;-89
2024/04/20 05:29:28;;;;;;;10.55;2.83;;;5.50;99.90;;;;;;5408041;26;20374;-88
2024/04/20 05:31:54;;;;;;;4.47;2.28;;;5.40;99.90;;;;;;5426500;26;20015;-88
2024/04/20 05:34:19;;;;;;;7.15;2.67;;;5.50;99.90;;;;;;5394621;26;20029;-89
2024/04/20 05:36:45;;;;;;;8.00;2.88;;;5.50;99.90;;;;;;5411632;26;20501;-90
2024/04/20 05:39:11;;;;;;;7.72;3.78;;;5.50;99.90;;;;;;5392072;26;20008;-88
2024/04/20 05:41:36;;;;;;;12.10;3.35;;;5.50;99.90;;;;;;5401999;26;20015;-89
2024/04/20 05:44:02;;;;;;;7.25;2.78;;;5.50;99.90;;;;;;5388935;26;20000;-89
2024/04/20 05:46:27;;;;;;;9.43;3.90;;;5.60;99.90;;;;;;5413693;26;19995;-91
2024/04/20 05:48:55;;;;;;;6.80;3.05;;;5.50;99.90;;;;;;5424319;26;20612;-89
2024/04/20 05:51:20;;;;;;;8.88;3.28;;;5.60;99.90;;;;;;5418010;26;20007;-89
2024/04/20 05:53:46;;;;;;;9.48;3.63;;;5.60;99.90;;;;;;5415912;26;19992;-89
2024/04/20 05:56:12;;;;;;;5.85;2.90;;;5.60;99.90;;;;;;5378028;26;19995;-89
2024/04/20 05:58:37;;;;;;;10.52;3.65;;;5.60;99.90;;;;;;5413339;26;19992;-90
2024/04/20 06:01:03;;;;;;;4.78;3.10;;;5.60;99.90;;;;;;5389533;26;20345;-88
2024/04/20 06:03:29;;;;;;;10.82;3.25;;;5.60;99.90;;;;;;5411429;26;20002;-90
2024/04/20 06:05:54;;;;;;;8.88;3.15;;;5.60;99.90;;;;;;5427035;26;20008;-90
2024/04/20 06:08:20;;;;;;;9.32;3.05;;;5.60;99.90;;;;;;5439532;26;20089;-93
2024/04/20 06:10:56;;;;;;;9.70;4.25;;;5.60;99.90;;;;;;5408962;26;20037;-91
2024/04/20 06:13:22;;;;;;;5.45;3.20;;;5.60;99.90;;;;;;5395797;26;20016;-91
2024/04/20 06:15:48;;;;;;;5.97;2.80;;;5.60;99.90;;;;;;5419953;26;20012;-90
2024/04/20 06:18:17;;;;;;;7.15;3.42;;;5.60;99.90;;;;;;5430378;26;20010;-90
2024/04/20 06:20:43;;;;;;;7.50;3.75;;;5.70;99.90;;;;;;5399677;26;20050;-89
2024/04/20 06:23:14;;;;;;;12.63;4.85;;;5.70;99.90;;;;;;5409387;26;20015;-90
2024/04/20 06:25:43;;;;;;;9.73;4.35;;;5.60;99.90;;;;;;5428733;26;19995;-91
2024/04/20 06:28:10;;;;;;;7.47;3.35;;;5.70;99.90;;;;;;5364320;26;20049;-90
2024/04/20 06:30:36;;;;;;;7.03;2.60;;;5.70;99.90;;;;;;5418853;26;20007;-90
2024/04/20 06:33:02;;;;;;;6.05;2.70;;;5.70;99.90;;;;;;5410730;26;20036;-93
2024/04/20 06:35:27;;;;;;;6.15;3.35;;;5.80;99.90;;;;;;5403349;26;19996;-90
2024/04/20 06:37:53;;;;;;;10.05;4.60;;;5.80;99.90;;;;;;5387937;26;20043;-88
2024/04/20 06:40:19;;;;;;;5.93;3.08;;;5.90;99.90;;;;;;5404706;26;19997;-89
2024/04/20 06:42:48;;;;;;;9.48;2.83;;;5.90;99.90;;;;;;5389506;26;19997;-90
2024/04/20 06:45:14;;;;;;;5.82;3.10;;;6.10;99.90;;;;;;5423434;26;19999;-91
2024/04/20 06:47:40;;;;;;;7.03;2.72;;;6.10;99.90;;;;;;5424429;26;20015;-89
2024/04/20 06:50:07;;;;;;;6.95;2.35;;;6.20;99.90;;;;;;5424254;26;20011;-91
2024/04/20 06:52:34;;;;;;;3.28;1.92;;;6.20;99.90;;;;;;5424693;26;20035;-92
2024/04/20 06:55:09;;;;;;;4.00;1.73;;;6.30;99.90;;;;;;5398979;26;19999;-92
2024/04/20 06:57:35;;;;;;;2.45;1.75;;;6.50;99.90;;;;;;5422053;26;20014;-92
2024/04/20 07:00:01;;;;;;;3.70;1.63;;;6.50;99.90;;;;;;5383262;26;20000;-93
2024/04/20 07:02:27;;;;;;;2.40;1.55;;;6.50;99.90;;;;;;5433451;26;19995;-93
2024/04/20 07:04:53;;;;;;;3.92;1.63;;;6.60;99.90;;;;;;5421189;26;20000;-94
2024/04/20 07:07:19;;;;;;;12.35;4.82;;;6.80;99.90;;;;;;5406711;26;20063;-91
2024/04/20 07:09:48;;;;;;;3.38;3.08;;;6.80;99.40;;;;;;5414431;26;20015;-92
2024/04/20 07:12:15;;;;;;;3.10;2.35;;;6.90;98.40;;;;;;5387651;26;20112;-90
2024/04/20 07:14:41;;;;;;;4.47;1.80;;;6.80;97.20;;;;;;5389989;26;20015;-91
2024/04/20 07:17:07;;;;;;;2.88;2.10;;;7.00;98.70;;;;;;5401726;26;20000;-91
2024/04/20 07:19:32;;;;;;;4.80;3.03;;;7.10;98.50;;;;;;5389422;26;20015;-92
2024/04/20 07:21:59;;;;;;;4.97;2.08;;;7.00;97.30;;;;;;5390583;26;20070;-90
2024/04/20 07:24:25;;;;;;;4.75;2.60;;;7.10;97.50;;;;;;5391529;26;20022;-91
2024/04/20 07:26:51;;;;;;;4.50;3.47;;;6.90;96.10;;;;;;5386002;26;20000;-91
2024/04/20 07:29:16;;;;;;;4.70;3.30;;;6.80;96.20;;;;;;5395365;26;20257;-90
2024/04/20 07:31:42;;;;;;;3.55;1.55;;;7.00;95.70;;;;;;5427833;26;20004;-90
2024/04/20 07:34:08;;;;;;;5.18;3.30;;;7.00;96.20;;;;;;5428656;26;20003;-90
2024/04/20 07:36:33;;;;;;;3.88;1.80;;;7.20;97.50;;;;;;5396505;26;20000;-91
2024/04/20 07:38:59;;;;;;;6.80;2.25;;;7.40;93.50;;;;;;5427877;26;19999;-92
2024/04/20 07:41:25;;;;;;;5.38;2.60;;;7.60;95.80;;;;;;5394755;26;20025;-91
2024/04/20 07:43:51;;;;;;;4.55;1.92;;;7.70;91.60;;;;;;5406890;26;20035;-89
2024/04/20 07:46:16;;;;;;;3.47;2.20;;;7.60;91.60;;;;;;5394569;26;20061;-92
2024/04/20 07:48:44;;;;;;;5.90;2.20;;;7.70;90.80;;;;;;5392971;26;20314;-90
2024/04/20 07:51:09;;;;;;;3.90;2.28;;;7.70;90.00;;;;;;5394472;26;19996;-91
2024/04/20 07:53:35;;;;;;;2.25;1.38;;;7.80;88.70;;;;;;5427595;26;20011;-90
2024/04/20 07:56:01;;;;;;;4.43;2.33;;;7.80;86.80;;;;;;5426741;26;20002;-90
2024/04/20 07:58:26;;;;;;;4.18;2.03;;;8.10;89.80;;;;;;5391326;26;20000;-90
2024/04/20 08:00:52;;;;;;;4.60;2.25;;;8.20;84.10;;;;;;5405342;26;20049;-91
2024/04/20 08:03:18;;;;;;;2.60;2.20;;;8.40;83.70;;;;;;5406393;26;20010;-91
2024/04/20 08:05:44;;;;;;;4.72;2.15;;;8.70;83.00;;;;;;5391931;26;20010;-90
2024/04/20 08:08:10;;;;;;;4.20;3.35;;;8.90;77.50;;;;;;5407887;26;20011;-92
2024/04/20 08:10:35;;;;;;;4.55;1.90;;;9.00;76.60;;;;;;5409751;26;20350;-90
2024/04/20 08:13:01;;;;;;;2.65;1.85;;;8.90;76.70;;;;;;5390666;26;20007;-90
2024/04/20 08:15:27;;;;;;;4.18;2.30;;;9.10;74.10;;;;;;5391031;26;19996;-89
2024/04/20 08:17:52;;;;;;;4.20;2.67;;;9.20;72.70;;;;;;5392279;26;20047;-89
2024/04/20 08:20:18;;;;;;;3.63;3.33;;;9.20;72.20;;;;;;5420186;26;19993;-91
2024/04/20 08:22:43;;;;;;;4.95;2.85;;;9.10;70.30;;;;;;5409150;26;20000;-90
2024/04/20 08:25:09;;;;;;;6.65;2.95;;;9.00;68.40;;;;;;5416107;26;20003;-90
2024/04/20 08:27:35;;;;;;;6.22;3.97;;;8.90;66.90;;;;;;5399601;26;20020;-89
2024/04/20 08:30:04;;;;;;;5.10;2.72;;;8.90;66.50;;;;;;5393974;26;20004;-90
2024/04/20 08:32:30;;;;;;;5.65;2.50;;;8.80;66.90;;;;;;5415348;26;20066;-90
2024/04/20 08:34:56;;;;;;;5.07;2.90;;;8.60;68.30;;;;;;5397438;26;20000;-89
2024/04/20 08:37:21;;;;;;;4.05;2.58;;;8.40;69.50;;;;;;5410021;26;20004;-90
2024/04/20 08:39:47;;;;;;;4.85;2.35;;;8.30;68.60;;;;;;5418680;26;20031;-89
2024/04/20 08:42:35;;;;;;;2.60;2.13;;;8.20;67.90;;;;;;5410997;26;20015;-90
2024/04/20 08:45:03;;;;;;;3.15;2.35;;;8.30;67.60;;;;;;5426510;26;20039;-90
2024/04/20 08:47:31;;;;;;;3.88;2.38;;;8.40;67.50;;;;;;5427025;26;19995;-89
2024/04/20 08:49:59;;;;;;;3.20;2.42;;;8.50;68.00;;;;;;5396364;26;20004;-92
2024/04/20 08:52:26;;;;;;;3.58;3.10;;;8.70;69.50;;;;;;5411379;26;20007;-89
2024/04/20 08:54:54;;;;;;;4.07;2.60;;;8.80;67.90;;;;;;5402796;26;19988;-90
2024/04/20 08:57:22;;;;;;;;;;;8.80;65.20;;;;;;5431820;26;20011;-92
2024/04/20 08:59:49;;;;;;;4.97;3.38;;;8.70;62.90;;;;;;5437682;26;19927;-90
2024/04/20 09:02:23;;;;;;;3.47;2.40;;;8.80;64.00;;;;;;5391167;26;20378;-88
2024/04/20 09:04:50;;;;;;;4.97;2.60;;;8.70;62.00;;;;;;5403110;26;20010;-90
2024/04/20 09:07:16;;;;;;;5.78;2.38;;;8.70;64.50;;;;;;5425172;26;19999;-90
2024/04/20 09:09:42;;;;;;;3.25;2.28;;;8.70;62.50;;;;;;5424738;26;20076;-89
2024/04/20 09:12:08;;;;;;;4.93;4.00;;;8.70;65.00;;;;;;5408957;26;20054;-91
2024/04/20 09:14:34;;;;;;;5.80;3.90;;;8.80;63.30;;;;;;5390736;26;20015;-90
2024/04/20 09:17:00;;;;;;;5.32;4.90;;;9.00;65.10;;;;;;5405820;26;20460;-91
2024/04/20 09:19:31;;;;;;;4.05;2.60;;;9.20;63.90;;;;;;5404957;26;20015;-95
2024/04/20 09:22:23;;;;;;;5.32;4.00;;;9.20;65.40;;;;;;5404384;26;20003;-95
2024/04/20 09:25:02;;;;;;;4.13;2.58;;;9.10;64.10;;;;;;5366481;26;20015;-88
2024/04/20 09:27:28;;;;;;;6.95;3.83;;;9.30;65.20;;;;;;5406053;26;20017;-93
2024/04/20 09:29:54;;;;;;;4.47;4.18;;;9.50;66.70;;;;;;5398815;26;20011;-90
2024/04/20 09:32:27;;;;;;;5.50;5.00;;;10.00;65.30;;;;;;5392843;26;19996;-88
2024/04/20 09:34:53;;;;;;;8.27;3.05;;;10.50;56.30;;;;;;5404764;26;20000;-88
2024/04/20 09:37:19;;;;;;;4.32;3.92;;;11.10;57.60;;;;;;5420629;26;19999;-89
2024/04/20 09:39:45;;;;;;;4.60;4.25;;;11.30;50.60;;;;;;5403126;26;20015;-90
2024/04/20 09:42:10;;;;;;;5.47;3.42;;;11.60;49.20;;;;;;5406202;26;20411;-92
2024/04/20 09:44:40;;;;;;;3.60;2.67;;;11.70;46.30;;;;;;5414603;26;20015;-92
2024/04/20 09:47:06;;;;;;;4.32;3.85;;;11.60;47.00;;;;;;5389455;26;20013;-92
2024/04/20 09:49:33;;;;;;;3.83;3.53;;;11.10;45.90;;;;;;5395677;26;20008;-91
2024/04/20 09:52:08;;;;;;;4.95;4.38;;;11.10;48.70;;;;;;5406462;26;20003;-93
2024/04/20 09:54:40;;;;;;;7.28;4.20;;;10.90;49.90;;;;;;5397668;26;20000;-89
2024/04/20 09:57:07;;;;;;;6.43;3.85;;;10.70;50.50;;;;;;5413287;26;20004;-89
2024/04/20 09:59:35;;;;;;;4.55;2.80;;;10.50;51.00;;;;;;5391969;26;20014;-91
2024/04/20 10:02:02;;;;;;;6.35;3.53;;;10.30;52.40;;;;;;5409996;26;20075;-90
2024/04/20 10:04:29;;;;;;;5.53;3.70;;;10.30;52.10;;;;;;5424353;26;20047;-93
2024/04/20 10:06:57;;;;;;;5.07;3.05;;;10.50;51.80;;;;;;5427539;26;20049;-93
2024/04/20 10:09:24;;;;;;;4.28;3.83;;;10.60;53.10;;;;;;5393603;26;19996;-93
2024/04/20 10:11:51;;;;;;;4.63;4.22;;;10.80;52.10;;;;;;5411259;26;20014;-92
2024/04/20 10:14:17;;;;;;;5.60;4.30;;;11.00;50.40;;;;;;5377583;26;19991;-92
2024/04/20 10:16:43;;;;;;;5.05;3.42;;;11.10;47.10;;;;;;5385031;26;20007;-92
2024/04/20 10:19:09;;;;;;;5.32;3.30;;;11.20;48.80;;;;;;5427798;26;20011;-92
2024/04/20 10:21:35;;;;;;;4.40;3.90;;;11.30;46.50;;;;;;5413145;26;19992;-95
2024/04/20 10:24:01;;;;;;;5.97;3.75;;;11.30;47.40;;;;;;5421501;26;20068;-94
2024/04/20 10:26:30;;;;;;;3.72;3.20;;;11.40;46.40;;;;;;5416430;26;20027;-91
2024/04/20 10:29:16;;;;;;;;;;;;;;;;;;;;;
2024/04/20 10:31:42;;;;;;;3.45;3.03;;;12.20;47.70;;;;;;5335858;26;20003;-93
2024/04/20 10:34:08;;;;;;;4.65;3.47;;;12.50;44.00;;;;;;5287082;26;20474;-95
2024/04/20 10:36:34;;;;;;;4.50;3.97;;;12.60;42.10;;;;;;5361644;26;20004;-90
2024/04/20 10:39:04;;;;;;;4.32;3.85;;;12.90;42.00;;;;;;5325303;26;20008;-90
2024/04/20 10:41:37;;;;;;;3.10;2.75;;;13.10;40.30;;;;;;5351987;26;20000;-91
2024/04/20 10:44:15;;;;;;;4.55;3.53;;;13.00;39.90;;;;;;5354555;26;20022;-92
2024/04/20 10:46:47;;;;;;;5.25;4.28;;;13.50;39.60;;;;;;5309028;26;20008;-92
2024/04/20 10:49:15;;;;;;;4.53;3.47;;;13.40;38.60;;;;;;5349865;26;20018;-89
2024/04/20 10:51:56;;;;;;;3.08;2.55;;;13.10;39.10;;;;;;5327095;26;19997;-91
2024/04/20 10:54:25;;;;;;;3.63;2.88;;;13.40;38.30;;;;;;5356453;26;20036;-90
2024/04/20 10:56:53;;;;;;;3.42;3.13;;;13.10;38.80;;;;;;5369585;26;20028;-94
2024/04/20 10:59:20;;;;;;;3.72;3.17;;;13.40;39.70;;;;;;5346766;26;20607;-90
2024/04/20 11:01:45;;;;;;;5.40;3.92;;;13.80;37.70;;;;;;5331720;26;20016;-91
2024/04/20 11:04:12;;;;;;;3.72;3.33;;;14.20;35.30;;;;;;5317570;26;20121;-91
2024/04/20 11:06:38;;;;;;;3.08;2.33;;;14.50;35.40;;;;;;5355015;26;20565;-90
2024/04/20 11:09:11;;;;;;;4.35;3.97;;;14.00;35.90;;;;;;5329329;26;20103;-91
2024/04/20 11:11:37;;;;;;;3.50;3.28;;;14.00;38.00;;;;;;5340367;26;20019;-90
2024/04/20 11:14:04;;;;;;;4.13;3.00;;;13.20;37.30;;;;;;5356984;26;20022;-89
2024/04/20 11:16:31;;;;;;;3.22;2.92;;;12.80;39.20;;;;;;5350236;26;19999;-91
2024/04/20 11:18:58;;;;;;;3.75;3.35;;;12.30;39.40;;;;;;5381359;26;20079;-90
2024/04/20 11:21:24;;;;;;;4.30;2.53;;;12.00;38.40;;;;;;5281775;26;20054;-91
2024/04/20 11:23:51;;;;;;;3.42;1.95;;;11.90;39.50;;;;;;5319877;26;22069;-93
2024/04/20 11:26:17;;;;;;;;;;;11.90;40.50;;;;;;5312444;26;1834322;-90
2024/04/20 11:28:43;;;;;;;2.53;2.33;;;11.60;41.00;;;;;;5318813;26;19941;-93
2024/04/20 11:31:12;;;;;;;8.68;2.15;;;11.30;42.10;;;;;;5330505;26;20014;-91
2024/04/20 11:33:47;;;;;;;3.70;1.17;;;11.20;46.40;;;;;;5346956;26;20347;-91
2024/04/20 11:36:17;;;;;;;4.20;3.80;;;10.90;49.40;;;;;;5294984;26;20078;-90
2024/04/20 11:38:44;;;;;;;3.88;3.40;;;10.50;52.50;;;;;;5309880;26;20083;-90
2024/04/20 11:41:10;;;;;;;3.20;2.78;;;10.40;56.50;;;;;;5362334;26;20085;-89
2024/04/20 11:43:37;;;;;;;3.28;3.00;;;10.00;60.00;;;;;;5318894;26;20011;-90
2024/04/20 11:46:04;;;;;;;6.18;3.70;;;9.80;62.30;;;;;;5305271;26;20023;-92
2024/04/20 11:48:32;;;;;;;6.13;3.67;;;9.70;65.60;;;;;;5385209;21;20011;-90
2024/04/20 11:51:08;;;;;;;6.15;4.28;;;9.70;66.50;;;;;;5341428;26;20015;-92
2024/04/20 11:56:56;;;;;;;4.85;3.58;;;9.70;67.50;;;;;;5394066;26;20008;-95
2024/04/20 11:59:27;;;;;;;4.75;4.28;;;9.80;69.00;;;;;;5354369;26;20029;-88
2024/04/20 12:01:53;;;;;;;4.20;3.85;;;9.90;68.40;;;;;;5385623;26;20077;-93
2024/04/20 12:04:24;;;;;;;3.15;2.15;;;10.00;69.40;;;;;;5376499;26;21017;-86
2024/04/20 12:06:53;;;;;;;4.32;3.92;;;10.20;67.70;;;;;;5352324;26;20000;-88
2024/04/20 12:09:27;;;;;;;4.18;3.58;;;10.20;68.70;;;;;;5341951;26;20006;-86
2024/04/20 12:11:56;;;;;;;3.83;2.78;;;10.40;65.70;;;;;;5346382;26;20206;-87
2024/04/20 12:14:58;;;;;;;3.95;3.65;;;10.80;65.20;;;;;;5364546;26;20007;-86
2024/04/20 12:17:22;;;;;;;5.35;1.83;;;10.80;60.60;;;;;;5385701;26;20381;-86
2024/04/20 12:19:51;;;;;;;4.50;3.25;;;11.40;58.50;;;;;;5385035;26;20011;-85
2024/04/20 12:22:19;;;;;;;8.77;6.57;;;12.00;56.10;;;;;;5388646;26;20047;-87
2024/04/20 12:24:46;;;;;;;3.95;2.67;;;13.00;51.50;;;;;;5345317;26;20001;-89
2024/04/20 12:27:12;;;;;;;7.30;3.58;;;13.40;45.00;;;;;;5371352;26;20024;-92
2024/04/20 12:29:37;;;;;;;3.28;3.05;;;13.90;45.50;;;;;;5390685;26;20054;-85
2024/04/20 12:32:15;;;;;;;3.42;3.00;;;14.40;43.00;;;;;;5392955;26;20000;-88
2024/04/20 12:34:58;;;;;;;3.35;3.15;;;14.30;42.10;;;;;;5373431;26;20089;-88
2024/04/20 12:37:32;;;;;;;4.18;3.63;;;14.10;42.50;;;;;;5376560;26;20004;-87
2024/04/20 12:40:09;;;;;;;;;;;13.30;40.20;;;;;;5345081;26;20007;-94
2024/04/20 12:42:42;;;;;;;3.85;3.25;;;13.40;42.40;;;;;;5385971;26;19957;-89
2024/04/20 12:45:10;;;;;;;3.38;3.15;;;12.70;46.10;;;;;;5325085;26;19999;-87
2024/04/20 12:47:43;;;;;;;3.47;2.88;;;12.60;44.90;;;;;;5349630;26;20015;-95
2024/04/20 12:50:09;;;;;;;3.33;3.05;;;12.10;45.60;;;;;;5398875;26;20528;-89
2024/04/20 12:52:35;;;;;;;3.13;2.63;;;12.20;47.70;;;;;;5386285;26;20005;-87
2024/04/20 12:55:03;;;;;;;3.33;3.00;;;12.70;51.10;;;;;;5349342;26;20004;-86
2024/04/20 12:57:33;;;;;;;3.13;2.63;;;12.60;51.90;;;;;;5381279;26;20131;-88